KHNB/HNB METAR and TAF weather

Enter ICAO airport designator
Station Type Date Time Source
KHNB METAR 2020/01/24 02:56 UTC NOAA

KHNB 240256Z AUTO 12012KT 10SM -RA OVC009 05/05 A2993 RMK AO2 CIG 006V012 SLP138 P0002 60005 T00500050 58024


Station Type Date Time Source
KHNB Decoded METAR 2020/01/24 02:56 UTC NOAA

Huntingburg, IN, United States (KHNB) 38-15N 086-57W
Jan 23, 2020 - 09:56 PM EST / 2020.01.24 0256 UTC
Wind: from the ESE (120 degrees) at 14 MPH (12 KT):0
Visibility: 10 mile(s):0
Sky conditions: overcast
Weather: light rain
Precipitation last hour: 0.02 inches
Temperature: 41.0 F (5.0 C)
Dew Point: 41.0 F (5.0 C)
Relative Humidity: 100%
Pressure (altimeter): 29.93 in. Hg (1013 hPa)
Pressure tendency: 0.07 inches (2.4 hPa) lower than three hours ago
ob: KHNB 240256Z AUTO 12012KT 10SM -RA OVC009 05/05 A2993 RMK AO2 CIG 006V012 SLP138 P0002 60005 T00500050 58024
cycle: 3

Station Type Date Time Source
KHNB TAF 2020/01/24 02:33 UTC NOAA

TAF
AMD KHNB 240132Z 2402/2424 12012KT P6SM -RA OVC007
FM240500 12008KT 4SM BR SCT004 OVC006
FM241200 15005KT 2SM BR VCSH BKN003 OVC007
FM241500 20007KT 5SM BR BKN004 OVC008
FM241900 23009KT 6SM -RA BKN007 OVC013

Example: see airport list